sensor_id;sensor_type;location;lat;lon;timestamp;temperature;humidity
65421;DHT22;52028;50.658;14.004;2022-07-04T00:00:08;19.49;76.88
65421;DHT22;52028;50.658;14.004;2022-07-04T00:02:35;19.50;76.67
65421;DHT22;52028;50.658;14.004;2022-07-04T00:05:00;19.54;75.51
65421;DHT22;52028;50.658;14.004;2022-07-04T00:07:26;19.55;75.12
65421;DHT22;52028;50.658;14.004;2022-07-04T00:09:51;19.58;75.09
65421;DHT22;52028;50.658;14.004;2022-07-04T00:12:17;19.50;76.14
65421;DHT22;52028;50.658;14.004;2022-07-04T00:14:42;19.53;75.69
65421;DHT22;52028;50.658;14.004;2022-07-04T00:17:08;19.49;75.21
65421;DHT22;52028;50.658;14.004;2022-07-04T00:19:34;19.50;74.12
65421;DHT22;52028;50.658;14.004;2022-07-04T00:21:59;19.35;74.55
65421;DHT22;52028;50.658;14.004;2022-07-04T00:24:25;19.19;74.99
65421;DHT22;52028;50.658;14.004;2022-07-04T00:26:50;19.12;75.62
65421;DHT22;52028;50.658;14.004;2022-07-04T00:29:15;18.75;77.16
65421;DHT22;52028;50.658;14.004;2022-07-04T00:31:41;18.55;77.90
65421;DHT22;52028;50.658;14.004;2022-07-04T00:34:06;18.45;78.41
65421;DHT22;52028;50.658;14.004;2022-07-04T00:36:32;18.38;78.94
65421;DHT22;52028;50.658;14.004;2022-07-04T00:38:57;18.40;78.98
65421;DHT22;52028;50.658;14.004;2022-07-04T00:41:23;18.45;78.54
65421;DHT22;52028;50.658;14.004;2022-07-04T00:44:18;18.50;78.81
65421;DHT22;52028;50.658;14.004;2022-07-04T00:46:44;18.54;78.55
65421;DHT22;52028;50.658;14.004;2022-07-04T00:49:11;18.51;78.61
65421;DHT22;52028;50.658;14.004;2022-07-04T00:51:37;18.43;78.97
65421;DHT22;52028;50.658;14.004;2022-07-04T00:54:05;18.33;79.29
65421;DHT22;52028;50.658;14.004;2022-07-04T00:56:30;18.27;79.56
65421;DHT22;52028;50.658;14.004;2022-07-04T00:58:56;18.37;79.29
65421;DHT22;52028;50.658;14.004;2022-07-04T01:01:24;18.36;79.32
65421;DHT22;52028;50.658;14.004;2022-07-04T01:03:50;18.41;79.54
65421;DHT22;52028;50.658;14.004;2022-07-04T01:06:15;18.37;78.94
65421;DHT22;52028;50.658;14.004;2022-07-04T01:08:42;18.40;79.17
65421;DHT22;52028;50.658;14.004;2022-07-04T01:11:08;18.36;79.33
65421;DHT22;52028;50.658;14.004;2022-07-04T01:13:35;18.32;79.12
65421;DHT22;52028;50.658;14.004;2022-07-04T01:16:01;18.26;79.45
65421;DHT22;52028;50.658;14.004;2022-07-04T01:18:26;18.26;79.55
65421;DHT22;52028;50.658;14.004;2022-07-04T01:20:52;18.20;80.09
65421;DHT22;52028;50.658;14.004;2022-07-04T01:23:17;18.17;80.78
65421;DHT22;52028;50.658;14.004;2022-07-04T01:25:43;18.03;80.87
65421;DHT22;52028;50.658;14.004;2022-07-04T01:28:09;17.95;81.35
65421;DHT22;52028;50.658;14.004;2022-07-04T01:30:36;17.89;81.91
65421;DHT22;52028;50.658;14.004;2022-07-04T01:33:02;17.89;81.92
65421;DHT22;52028;50.658;14.004;2022-07-04T01:35:28;17.92;81.82
65421;DHT22;52028;50.658;14.004;2022-07-04T01:37:53;17.89;81.81
65421;DHT22;52028;50.658;14.004;2022-07-04T01:40:19;17.78;82.09
65421;DHT22;52028;50.658;14.004;2022-07-04T01:42:45;17.74;82.09
65421;DHT22;52028;50.658;14.004;2022-07-04T01:45:11;17.78;81.93
65421;DHT22;52028;50.658;14.004;2022-07-04T01:47:37;17.70;81.84
65421;DHT22;52028;50.658;14.004;2022-07-04T01:50:04;17.57;82.20
65421;DHT22;52028;50.658;14.004;2022-07-04T01:52:30;17.51;82.30
65421;DHT22;52028;50.658;14.004;2022-07-04T01:54:55;17.58;82.52
65421;DHT22;52028;50.658;14.004;2022-07-04T01:57:20;17.55;82.56
65421;DHT22;52028;50.658;14.004;2022-07-04T01:59:46;17.50;82.55
65421;DHT22;52028;50.658;14.004;2022-07-04T02:02:30;17.47;82.81
65421;DHT22;52028;50.658;14.004;2022-07-04T02:04:55;17.50;82.55
65421;DHT22;52028;50.658;14.004;2022-07-04T02:07:20;17.53;82.57
65421;DHT22;52028;50.658;14.004;2022-07-04T02:09:46;17.53;82.83
65421;DHT22;52028;50.658;14.004;2022-07-04T02:12:12;17.47;83.08
65421;DHT22;52028;50.658;14.004;2022-07-04T02:14:56;17.55;82.36
65421;DHT22;52028;50.658;14.004;2022-07-04T02:17:21;17.64;81.83
65421;DHT22;52028;50.658;14.004;2022-07-04T02:19:46;17.67;81.60
65421;DHT22;52028;50.658;14.004;2022-07-04T02:22:13;17.65;81.82
65421;DHT22;52028;50.658;14.004;2022-07-04T02:24:39;17.64;82.14
65421;DHT22;52028;50.658;14.004;2022-07-04T02:27:05;17.64;82.51
65421;DHT22;52028;50.658;14.004;2022-07-04T02:29:30;17.65;82.44
65421;DHT22;52028;50.658;14.004;2022-07-04T02:31:56;17.63;82.38
65421;DHT22;52028;50.658;14.004;2022-07-04T02:34:21;17.60;82.35
65421;DHT22;52028;50.658;14.004;2022-07-04T02:36:47;17.68;81.99
65421;DHT22;52028;50.658;14.004;2022-07-04T02:39:12;17.64;82.05
65421;DHT22;52028;50.658;14.004;2022-07-04T02:41:37;17.63;81.68
65421;DHT22;52028;50.658;14.004;2022-07-04T02:44:03;17.55;81.82
65421;DHT22;52028;50.658;14.004;2022-07-04T02:46:28;17.46;82.24
65421;DHT22;52028;50.658;14.004;2022-07-04T02:48:54;17.44;82.60
65421;DHT22;52028;50.658;14.004;2022-07-04T02:51:20;17.43;82.39
65421;DHT22;52028;50.658;14.004;2022-07-04T02:53:45;17.48;82.43
65421;DHT22;52028;50.658;14.004;2022-07-04T02:56:10;17.55;81.98
65421;DHT22;52028;50.658;14.004;2022-07-04T02:58:36;17.58;81.82
65421;DHT22;52028;50.658;14.004;2022-07-04T03:01:01;17.58;81.90
65421;DHT22;52028;50.658;14.004;2022-07-04T03:03:27;17.63;81.93
65421;DHT22;52028;50.658;14.004;2022-07-04T03:05:53;17.65;81.72
65421;DHT22;52028;50.658;14.004;2022-07-04T03:08:18;17.71;81.61
65421;DHT22;52028;50.658;14.004;2022-07-04T03:10:44;17.79;81.20
65421;DHT22;52028;50.658;14.004;2022-07-04T03:13:09;17.79;81.15
65421;DHT22;52028;50.658;14.004;2022-07-04T03:15:34;17.81;80.92
65421;DHT22;52028;50.658;14.004;2022-07-04T03:18:00;17.82;80.65
65421;DHT22;52028;50.658;14.004;2022-07-04T03:20:26;17.81;80.71
65421;DHT22;52028;50.658;14.004;2022-07-04T03:22:51;17.89;80.59
65421;DHT22;52028;50.658;14.004;2022-07-04T03:25:19;17.89;80.42
65421;DHT22;52028;50.658;14.004;2022-07-04T03:27:44;17.93;80.46
65421;DHT22;52028;50.658;14.004;2022-07-04T03:30:10;17.92;80.27
65421;DHT22;52028;50.658;14.004;2022-07-04T03:32:36;17.99;79.73
65421;DHT22;52028;50.658;14.004;2022-07-04T03:35:01;18.05;79.53
65421;DHT22;52028;50.658;14.004;2022-07-04T03:37:27;18.03;79.50
65421;DHT22;52028;50.658;14.004;2022-07-04T03:39:52;18.09;79.09
65421;DHT22;52028;50.658;14.004;2022-07-04T03:42:18;18.12;78.95
65421;DHT22;52028;50.658;14.004;2022-07-04T03:44:43;18.14;79.05
65421;DHT22;52028;50.658;14.004;2022-07-04T03:47:09;18.19;78.86
65421;DHT22;52028;50.658;14.004;2022-07-04T03:49:34;18.22;78.77
65421;DHT22;52028;50.658;14.004;2022-07-04T03:52:00;18.26;78.52
65421;DHT22;52028;50.658;14.004;2022-07-04T03:54:25;18.29;78.01
65421;DHT22;52028;50.658;14.004;2022-07-04T03:56:53;18.36;77.96
65421;DHT22;52028;50.658;14.004;2022-07-04T03:59:18;18.41;77.64
65421;DHT22;52028;50.658;14.004;2022-07-04T04:01:44;18.47;77.10
65421;DHT22;52028;50.658;14.004;2022-07-04T04:04:09;18.54;77.13
65421;DHT22;52028;50.658;14.004;2022-07-04T04:06:53;18.55;77.70
65421;DHT22;52028;50.658;14.004;2022-07-04T04:09:19;18.58;77.25
65421;DHT22;52028;50.658;14.004;2022-07-04T04:11:44;18.58;77.16
65421;DHT22;52028;50.658;14.004;2022-07-04T04:14:10;18.58;77.02
65421;DHT22;52028;50.658;14.004;2022-07-04T04:16:37;18.69;76.51
65421;DHT22;52028;50.658;14.004;2022-07-04T04:19:03;18.75;76.08
65421;DHT22;52028;50.658;14.004;2022-07-04T04:21:29;18.73;75.97
65421;DHT22;52028;50.658;14.004;2022-07-04T04:23:54;18.78;75.92
65421;DHT22;52028;50.658;14.004;2022-07-04T04:26:20;18.87;75.61
65421;DHT22;52028;50.658;14.004;2022-07-04T04:28:45;18.81;75.88
65421;DHT22;52028;50.658;14.004;2022-07-04T04:31:10;18.73;76.38
65421;DHT22;52028;50.658;14.004;2022-07-04T04:33:38;18.76;76.41
65421;DHT22;52028;50.658;14.004;2022-07-04T04:36:05;18.72;75.87
65421;DHT22;52028;50.658;14.004;2022-07-04T04:38:31;18.81;75.95
65421;DHT22;52028;50.658;14.004;2022-07-04T04:40:56;19.06;75.51
65421;DHT22;52028;50.658;14.004;2022-07-04T04:43:21;19.31;74.02
65421;DHT22;52028;50.658;14.004;2022-07-04T04:45:47;19.64;73.01
65421;DHT22;52028;50.658;14.004;2022-07-04T04:48:12;19.81;72.43
65421;DHT22;52028;50.658;14.004;2022-07-04T04:50:37;19.96;72.13
65421;DHT22;52028;50.658;14.004;2022-07-04T04:53:03;19.86;71.95
65421;DHT22;52028;50.658;14.004;2022-07-04T04:55:28;20.03;71.83
65421;DHT22;52028;50.658;14.004;2022-07-04T04:57:53;19.89;71.87
65421;DHT22;52028;50.658;14.004;2022-07-04T05:00:19;20.09;71.21
65421;DHT22;52028;50.658;14.004;2022-07-04T05:02:44;20.36;70.74
65421;DHT22;52028;50.658;14.004;2022-07-04T05:05:10;20.54;69.96
65421;DHT22;52028;50.658;14.004;2022-07-04T05:07:35;20.63;69.46
65421;DHT22;52028;50.658;14.004;2022-07-04T05:10:02;20.78;69.27
65421;DHT22;52028;50.658;14.004;2022-07-04T05:12:28;20.72;69.65
65421;DHT22;52028;50.658;14.004;2022-07-04T05:14:54;20.65;69.37
65421;DHT22;52028;50.658;14.004;2022-07-04T05:17:20;20.65;69.05
65421;DHT22;52028;50.658;14.004;2022-07-04T05:19:45;20.58;69.46
65421;DHT22;52028;50.658;14.004;2022-07-04T05:22:10;20.63;69.00
65421;DHT22;52028;50.658;14.004;2022-07-04T05:24:36;20.68;68.82
65421;DHT22;52028;50.658;14.004;2022-07-04T05:27:08;20.85;68.81
65421;DHT22;52028;50.658;14.004;2022-07-04T05:29:33;21.06;68.48
65421;DHT22;52028;50.658;14.004;2022-07-04T05:31:59;21.13;68.33
65421;DHT22;52028;50.658;14.004;2022-07-04T05:34:24;21.07;68.29
65421;DHT22;52028;50.658;14.004;2022-07-04T05:36:50;20.84;68.61
65421;DHT22;52028;50.658;14.004;2022-07-04T05:39:15;20.67;69.35
65421;DHT22;52028;50.658;14.004;2022-07-04T05:41:41;20.63;70.04
65421;DHT22;52028;50.658;14.004;2022-07-04T05:44:06;20.59;69.79
65421;DHT22;52028;50.658;14.004;2022-07-04T05:46:32;20.51;69.57
65421;DHT22;52028;50.658;14.004;2022-07-04T05:48:57;20.65;69.05
65421;DHT22;52028;50.658;14.004;2022-07-04T05:51:23;20.91;68.73
65421;DHT22;52028;50.658;14.004;2022-07-04T05:53:48;21.22;67.79
65421;DHT22;52028;50.658;14.004;2022-07-04T05:56:14;21.54;65.99
65421;DHT22;52028;50.658;14.004;2022-07-04T05:58:39;21.64;65.39
65421;DHT22;52028;50.658;14.004;2022-07-04T06:01:05;21.61;63.58
65421;DHT22;52028;50.658;14.004;2022-07-04T06:03:31;21.64;62.20
65421;DHT22;52028;50.658;14.004;2022-07-04T06:05:56;21.81;62.18
65421;DHT22;52028;50.658;14.004;2022-07-04T06:08:23;21.86;62.35
65421;DHT22;52028;50.658;14.004;2022-07-04T06:10:48;21.96;63.00
65421;DHT22;52028;50.658;14.004;2022-07-04T06:13:13;22.05;65.09
65421;DHT22;52028;50.658;14.004;2022-07-04T06:15:39;22.13;64.99
65421;DHT22;52028;50.658;14.004;2022-07-04T06:18:05;22.17;65.03
65421;DHT22;52028;50.658;14.004;2022-07-04T06:20:30;22.27;64.45
65421;DHT22;52028;50.658;14.004;2022-07-04T06:22:56;22.36;64.03
65421;DHT22;52028;50.658;14.004;2022-07-04T06:25:22;22.16;66.51
65421;DHT22;52028;50.658;14.004;2022-07-04T06:27:48;21.95;67.99
65421;DHT22;52028;50.658;14.004;2022-07-04T06:30:15;21.96;67.91
65421;DHT22;52028;50.658;14.004;2022-07-04T06:32:49;22.06;67.07
65421;DHT22;52028;50.658;14.004;2022-07-04T06:35:19;22.23;63.68
65421;DHT22;52028;50.658;14.004;2022-07-04T06:38:02;22.34;61.26
65421;DHT22;52028;50.658;14.004;2022-07-04T06:40:28;22.44;60.32
65421;DHT22;52028;50.658;14.004;2022-07-04T06:42:53;22.48;59.38
65421;DHT22;52028;50.658;14.004;2022-07-04T06:45:19;22.69;60.07
65421;DHT22;52028;50.658;14.004;2022-07-04T06:47:44;22.94;59.70
65421;DHT22;52028;50.658;14.004;2022-07-04T06:50:10;23.12;57.61
65421;DHT22;52028;50.658;14.004;2022-07-04T06:52:35;23.62;56.38
65421;DHT22;52028;50.658;14.004;2022-07-04T06:55:01;23.81;55.74
65421;DHT22;52028;50.658;14.004;2022-07-04T06:57:27;23.84;55.65
65421;DHT22;52028;50.658;14.004;2022-07-04T06:59:52;23.72;55.62
65421;DHT22;52028;50.658;14.004;2022-07-04T07:02:17;23.71;55.48
65421;DHT22;52028;50.658;14.004;2022-07-04T07:04:43;23.60;55.70
65421;DHT22;52028;50.658;14.004;2022-07-04T07:07:08;23.44;56.61
65421;DHT22;52028;50.658;14.004;2022-07-04T07:09:34;23.13;57.09
65421;DHT22;52028;50.658;14.004;2022-07-04T07:12:00;23.10;56.99
65421;DHT22;52028;50.658;14.004;2022-07-04T07:14:25;23.06;57.61
65421;DHT22;52028;50.658;14.004;2022-07-04T07:16:51;23.23;57.62
65421;DHT22;52028;50.658;14.004;2022-07-04T07:19:16;23.39;57.23
65421;DHT22;52028;50.658;14.004;2022-07-04T07:21:41;23.49;56.65
65421;DHT22;52028;50.658;14.004;2022-07-04T07:24:07;23.50;56.28
65421;DHT22;52028;50.658;14.004;2022-07-04T07:26:32;23.43;56.42
65421;DHT22;52028;50.658;14.004;2022-07-04T07:28:57;23.53;57.18
65421;DHT22;52028;50.658;14.004;2022-07-04T07:31:23;23.68;56.37
65421;DHT22;52028;50.658;14.004;2022-07-04T07:33:48;23.84;55.41
65421;DHT22;52028;50.658;14.004;2022-07-04T07:36:13;23.78;55.74
65421;DHT22;52028;50.658;14.004;2022-07-04T07:38:42;23.86;54.80
65421;DHT22;52028;50.658;14.004;2022-07-04T07:41:08;23.96;54.95
65421;DHT22;52028;50.658;14.004;2022-07-04T07:43:34;23.96;54.42
65421;DHT22;52028;50.658;14.004;2022-07-04T07:45:59;23.98;54.07
65421;DHT22;52028;50.658;14.004;2022-07-04T07:48:25;24.13;55.27
65421;DHT22;52028;50.658;14.004;2022-07-04T07:50:51;23.95;55.17
65421;DHT22;52028;50.658;14.004;2022-07-04T07:53:17;23.79;55.34
65421;DHT22;52028;50.658;14.004;2022-07-04T07:55:42;23.53;56.28
65421;DHT22;52028;50.658;14.004;2022-07-04T07:58:07;23.61;56.36
65421;DHT22;52028;50.658;14.004;2022-07-04T08:00:33;23.55;56.34
65421;DHT22;52028;50.658;14.004;2022-07-04T08:02:59;23.44;55.36
65421;DHT22;52028;50.658;14.004;2022-07-04T08:05:43;23.46;55.73
65421;DHT22;52028;50.658;14.004;2022-07-04T08:08:08;23.49;55.68
65421;DHT22;52028;50.658;14.004;2022-07-04T08:10:36;23.61;54.71
65421;DHT22;52028;50.658;14.004;2022-07-04T08:13:02;23.79;54.21
65421;DHT22;52028;50.658;14.004;2022-07-04T08:15:28;23.75;53.29
65421;DHT22;52028;50.658;14.004;2022-07-04T08:17:53;23.88;53.24
65421;DHT22;52028;50.658;14.004;2022-07-04T08:20:18;24.02;54.09
65421;DHT22;52028;50.658;14.004;2022-07-04T08:22:44;24.09;53.26
65421;DHT22;52028;50.658;14.004;2022-07-04T08:25:09;24.26;53.31
65421;DHT22;52028;50.658;14.004;2022-07-04T08:27:34;24.36;53.01
65421;DHT22;52028;50.658;14.004;2022-07-04T08:30:00;24.54;53.07
65421;DHT22;52028;50.658;14.004;2022-07-04T08:32:26;24.56;52.14
65421;DHT22;52028;50.658;14.004;2022-07-04T08:34:51;24.67;51.31
65421;DHT22;52028;50.658;14.004;2022-07-04T08:37:17;24.63;50.98
65421;DHT22;52028;50.658;14.004;2022-07-04T08:39:43;24.82;50.44
65421;DHT22;52028;50.658;14.004;2022-07-04T08:42:13;25.03;50.10
65421;DHT22;52028;50.658;14.004;2022-07-04T08:44:46;25.09;49.92
65421;DHT22;52028;50.658;14.004;2022-07-04T08:47:17;25.06;50.04
65421;DHT22;52028;50.658;14.004;2022-07-04T08:52:47;25.30;49.59
65421;DHT22;52028;50.658;14.004;2022-07-04T08:55:17;25.53;49.99
65421;DHT22;52028;50.658;14.004;2022-07-04T08:58:02;25.71;49.43
65421;DHT22;52028;50.658;14.004;2022-07-04T09:00:47;26.02;48.66
65421;DHT22;52028;50.658;14.004;2022-07-04T09:03:13;26.34;48.41
65421;DHT22;52028;50.658;14.004;2022-07-04T09:05:38;26.51;47.20
65421;DHT22;52028;50.658;14.004;2022-07-04T09:08:04;26.50;46.63
65421;DHT22;52028;50.658;14.004;2022-07-04T09:10:30;26.71;47.21
65421;DHT22;52028;50.658;14.004;2022-07-04T09:12:56;26.91;46.19
65421;DHT22;52028;50.658;14.004;2022-07-04T09:15:21;26.94;46.50
65421;DHT22;52028;50.658;14.004;2022-07-04T09:17:47;27.02;45.64
65421;DHT22;52028;50.658;14.004;2022-07-04T09:20:21;27.17;45.09
65421;DHT22;52028;50.658;14.004;2022-07-04T09:22:48;27.36;45.90
65421;DHT22;52028;50.658;14.004;2022-07-04T09:25:15;27.09;45.90
65421;DHT22;52028;50.658;14.004;2022-07-04T09:27:45;27.26;46.22
65421;DHT22;52028;50.658;14.004;2022-07-04T09:30:14;27.54;45.49
65421;DHT22;52028;50.658;14.004;2022-07-04T09:35:23;28.08;44.78
65421;DHT22;52028;50.658;14.004;2022-07-04T09:42:50;27.92;45.15
65421;DHT22;52028;50.658;14.004;2022-07-04T09:45:16;27.98;44.21
65421;DHT22;52028;50.658;14.004;2022-07-04T09:47:45;27.65;45.40
65421;DHT22;52028;50.658;14.004;2022-07-04T09:50:14;28.06;44.45
65421;DHT22;52028;50.658;14.004;2022-07-04T09:52:57;27.88;44.19
65421;DHT22;52028;50.658;14.004;2022-07-04T09:58:01;28.88;43.59
65421;DHT22;52028;50.658;14.004;2022-07-04T10:00:29;28.83;42.61
65421;DHT22;52028;50.658;14.004;2022-07-04T10:02:55;28.72;43.22
65421;DHT22;52028;50.658;14.004;2022-07-04T10:05:30;28.78;42.79
65421;DHT22;52028;50.658;14.004;2022-07-04T10:07:57;28.82;42.52
65421;DHT22;52028;50.658;14.004;2022-07-04T10:10:31;28.61;43.67
65421;DHT22;52028;50.658;14.004;2022-07-04T10:13:01;29.08;42.72
65421;DHT22;52028;50.658;14.004;2022-07-04T10:15:26;28.96;42.25
65421;DHT22;52028;50.658;14.004;2022-07-04T10:17:52;28.91;42.56
65421;DHT22;52028;50.658;14.004;2022-07-04T10:20:18;28.85;42.35
65421;DHT22;52028;50.658;14.004;2022-07-04T10:22:43;29.25;41.79
65421;DHT22;52028;50.658;14.004;2022-07-04T10:25:09;29.15;41.59
65421;DHT22;52028;50.658;14.004;2022-07-04T10:27:39;29.10;41.75
65421;DHT22;52028;50.658;14.004;2022-07-04T10:30:07;29.29;41.22
65421;DHT22;52028;50.658;14.004;2022-07-04T10:32:33;29.62;40.82
65421;DHT22;52028;50.658;14.004;2022-07-04T10:34:59;29.75;40.33
65421;DHT22;52028;50.658;14.004;2022-07-04T10:37:24;29.10;41.62
65421;DHT22;52028;50.658;14.004;2022-07-04T10:39:51;28.76;42.66
65421;DHT22;52028;50.658;14.004;2022-07-04T10:42:26;29.00;41.89
65421;DHT22;52028;50.658;14.004;2022-07-04T10:45:00;28.85;42.19
65421;DHT22;52028;50.658;14.004;2022-07-04T10:47:26;28.75;42.47
65421;DHT22;52028;50.658;14.004;2022-07-04T10:49:55;28.88;43.36
65421;DHT22;52028;50.658;14.004;2022-07-04T10:52:20;29.55;41.93
65421;DHT22;52028;50.658;14.004;2022-07-04T10:54:46;29.67;40.87
65421;DHT22;52028;50.658;14.004;2022-07-04T10:57:22;29.61;40.90
65421;DHT22;52028;50.658;14.004;2022-07-04T11:05:00;29.64;42.42
65421;DHT22;52028;50.658;14.004;2022-07-04T11:17:56;29.93;42.23
65421;DHT22;52028;50.658;14.004;2022-07-04T11:20:28;30.08;41.98
65421;DHT22;52028;50.658;14.004;2022-07-04T11:25:32;30.41;41.37
65421;DHT22;52028;50.658;14.004;2022-07-04T11:30:56;31.18;39.92
65421;DHT22;52028;50.658;14.004;2022-07-04T11:33:27;31.72;38.93
65421;DHT22;52028;50.658;14.004;2022-07-04T11:38:50;32.33;37.57
65421;DHT22;52028;50.658;14.004;2022-07-04T11:41:16;32.47;37.29
65421;DHT22;52028;50.658;14.004;2022-07-04T11:44:10;32.20;36.95
65421;DHT22;52028;50.658;14.004;2022-07-04T11:47:11;32.79;36.10
65421;DHT22;52028;50.658;14.004;2022-07-04T11:49:43;33.49;34.74
65421;DHT22;52028;50.658;14.004;2022-07-04T11:52:09;34.06;34.31
65421;DHT22;52028;50.658;14.004;2022-07-04T11:54:35;35.19;32.91
65421;DHT22;52028;50.658;14.004;2022-07-04T12:02:29;37.13;29.50
65421;DHT22;52028;50.658;14.004;2022-07-04T12:04:55;37.62;28.27
65421;DHT22;52028;50.658;14.004;2022-07-04T12:07:23;37.07;29.37
65421;DHT22;52028;50.658;14.004;2022-07-04T12:09:49;36.45;30.23
65421;DHT22;52028;50.658;14.004;2022-07-04T12:12:15;34.54;32.18
65421;DHT22;52028;50.658;14.004;2022-07-04T12:15:07;32.75;35.78
65421;DHT22;52028;50.658;14.004;2022-07-04T12:17:36;30.89;38.45
65421;DHT22;52028;50.658;14.004;2022-07-04T12:20:12;29.95;39.98
65421;DHT22;52028;50.658;14.004;2022-07-04T12:22:56;29.93;40.68
65421;DHT22;52028;50.658;14.004;2022-07-04T12:25:25;29.77;41.21
65421;DHT22;52028;50.658;14.004;2022-07-04T12:28:04;29.34;42.61
65421;DHT22;52028;50.658;14.004;2022-07-04T12:30:37;29.05;43.54
65421;DHT22;52028;50.658;14.004;2022-07-04T12:33:05;28.91;43.62
65421;DHT22;52028;50.658;14.004;2022-07-04T12:35:36;28.37;46.58
65421;DHT22;52028;50.658;14.004;2022-07-04T12:38:07;28.05;47.61
65421;DHT22;52028;50.658;14.004;2022-07-04T12:40:34;27.85;48.15
65421;DHT22;52028;50.658;14.004;2022-07-04T12:43:00;27.43;49.54
65421;DHT22;52028;50.658;14.004;2022-07-04T12:45:41;27.27;49.78
65421;DHT22;52028;50.658;14.004;2022-07-04T12:48:17;27.10;54.02
65421;DHT22;52028;50.658;14.004;2022-07-04T12:50:43;26.61;56.43
65421;DHT22;52028;50.658;14.004;2022-07-04T12:53:09;25.24;63.58
65421;DHT22;52028;50.658;14.004;2022-07-04T12:55:37;23.64;72.58
65421;DHT22;52028;50.658;14.004;2022-07-04T12:58:03;22.17;77.08
65421;DHT22;52028;50.658;14.004;2022-07-04T13:00:29;20.99;83.64
65421;DHT22;52028;50.658;14.004;2022-07-04T13:02:54;20.36;87.44
65421;DHT22;52028;50.658;14.004;2022-07-04T13:05:19;20.19;87.73
65421;DHT22;52028;50.658;14.004;2022-07-04T13:07:46;20.29;89.92
65421;DHT22;52028;50.658;14.004;2022-07-04T13:10:11;20.24;89.78
65421;DHT22;52028;50.658;14.004;2022-07-04T13:12:37;20.13;88.72
65421;DHT22;52028;50.658;14.004;2022-07-04T13:15:02;20.17;89.04
65421;DHT22;52028;50.658;14.004;2022-07-04T13:17:29;20.65;89.36
65421;DHT22;52028;50.658;14.004;2022-07-04T13:19:54;21.29;87.83
65421;DHT22;52028;50.658;14.004;2022-07-04T13:22:23;21.78;84.84
65421;DHT22;52028;50.658;14.004;2022-07-04T13:24:49;22.00;83.26
65421;DHT22;52028;50.658;14.004;2022-07-04T13:27:16;23.23;83.03
65421;DHT22;52028;50.658;14.004;2022-07-04T13:29:41;25.82;75.57
65421;DHT22;52028;50.658;14.004;2022-07-04T13:32:06;27.71;67.90
65421;DHT22;52028;50.658;14.004;2022-07-04T13:34:32;28.69;61.30
65421;DHT22;52028;50.658;14.004;2022-07-04T13:36:57;30.02;61.41
65421;DHT22;52028;50.658;14.004;2022-07-04T13:39:23;31.25;58.03
65421;DHT22;52028;50.658;14.004;2022-07-04T13:41:49;30.29;56.93
65421;DHT22;52028;50.658;14.004;2022-07-04T13:44:15;30.05;56.86
65421;DHT22;52028;50.658;14.004;2022-07-04T13:46:43;30.71;54.15
65421;DHT22;52028;50.658;14.004;2022-07-04T13:49:09;30.37;56.93
65421;DHT22;52028;50.658;14.004;2022-07-04T13:51:35;28.76;61.22
65421;DHT22;52028;50.658;14.004;2022-07-04T13:54:01;27.12;63.66
65421;DHT22;52028;50.658;14.004;2022-07-04T13:56:27;26.58;67.37
65421;DHT22;52028;50.658;14.004;2022-07-04T13:58:53;25.85;71.70
65421;DHT22;52028;50.658;14.004;2022-07-04T14:01:18;25.38;72.10
65421;DHT22;52028;50.658;14.004;2022-07-04T14:03:48;25.13;73.14
65421;DHT22;52028;50.658;14.004;2022-07-04T14:06:16;24.88;73.62
65421;DHT22;52028;50.658;14.004;2022-07-04T14:08:41;24.61;72.97
65421;DHT22;52028;50.658;14.004;2022-07-04T14:11:07;24.33;75.38
65421;DHT22;52028;50.658;14.004;2022-07-04T14:13:32;24.10;74.26
65421;DHT22;52028;50.658;14.004;2022-07-04T14:15:58;23.94;75.25
65421;DHT22;52028;50.658;14.004;2022-07-04T14:18:24;23.86;76.14
65421;DHT22;52028;50.658;14.004;2022-07-04T14:20:50;23.86;74.57
65421;DHT22;52028;50.658;14.004;2022-07-04T14:23:15;23.96;75.70
65421;DHT22;52028;50.658;14.004;2022-07-04T14:26:01;24.13;74.38
65421;DHT22;52028;50.658;14.004;2022-07-04T14:28:28;25.12;70.44
65421;DHT22;52028;50.658;14.004;2022-07-04T14:30:53;26.64;67.64
65421;DHT22;52028;50.658;14.004;2022-07-04T14:33:19;26.67;65.84
65421;DHT22;52028;50.658;14.004;2022-07-04T14:35:44;26.20;68.47
65421;DHT22;52028;50.658;14.004;2022-07-04T14:38:09;25.89;69.05
65421;DHT22;52028;50.658;14.004;2022-07-04T14:40:35;25.58;69.05
65421;DHT22;52028;50.658;14.004;2022-07-04T14:43:00;25.36;68.90
65421;DHT22;52028;50.658;14.004;2022-07-04T14:45:25;25.27;69.04
65421;DHT22;52028;50.658;14.004;2022-07-04T14:47:51;26.34;65.15
65421;DHT22;52028;50.658;14.004;2022-07-04T14:50:16;26.20;64.59
65421;DHT22;52028;50.658;14.004;2022-07-04T14:52:42;25.98;65.61
65421;DHT22;52028;50.658;14.004;2022-07-04T14:55:08;26.52;64.84
65421;DHT22;52028;50.658;14.004;2022-07-04T14:57:33;26.44;64.34
65421;DHT22;52028;50.658;14.004;2022-07-04T14:59:58;26.58;63.11
65421;DHT22;52028;50.658;14.004;2022-07-04T15:02:24;26.72;63.41
65421;DHT22;52028;50.658;14.004;2022-07-04T15:04:49;27.24;63.11
65421;DHT22;52028;50.658;14.004;2022-07-04T15:07:15;27.85;61.06
65421;DHT22;52028;50.658;14.004;2022-07-04T15:09:41;27.84;61.55
65421;DHT22;52028;50.658;14.004;2022-07-04T15:12:06;27.59;59.69
65421;DHT22;52028;50.658;14.004;2022-07-04T15:14:32;30.45;54.44
65421;DHT22;52028;50.658;14.004;2022-07-04T15:16:57;32.47;49.18
65421;DHT22;52028;50.658;14.004;2022-07-04T15:19:22;33.43;46.42
65421;DHT22;52028;50.658;14.004;2022-07-04T15:21:48;33.81;44.25
65421;DHT22;52028;50.658;14.004;2022-07-04T15:24:32;33.36;45.44
65421;DHT22;52028;50.658;14.004;2022-07-04T15:26:57;33.42;45.23
65421;DHT22;52028;50.658;14.004;2022-07-04T15:29:23;34.02;45.26
65421;DHT22;52028;50.658;14.004;2022-07-04T15:31:49;32.82;46.17
65421;DHT22;52028;50.658;14.004;2022-07-04T15:34:14;32.99;46.23
65421;DHT22;52028;50.658;14.004;2022-07-04T15:36:42;32.44;46.39
65421;DHT22;52028;50.658;14.004;2022-07-04T15:39:11;30.57;49.93
65421;DHT22;52028;50.658;14.004;2022-07-04T15:41:38;30.36;50.88
65421;DHT22;52028;50.658;14.004;2022-07-04T15:44:04;29.88;51.66
65421;DHT22;52028;50.658;14.004;2022-07-04T15:46:31;29.20;53.38
65421;DHT22;52028;50.658;14.004;2022-07-04T15:48:56;29.25;53.77
65421;DHT22;52028;50.658;14.004;2022-07-04T15:51:22;29.93;51.62
65421;DHT22;52028;50.658;14.004;2022-07-04T15:53:47;29.34;52.59
65421;DHT22;52028;50.658;14.004;2022-07-04T15:56:13;30.51;47.40